Terminal Aerodrome Forecast
Issued by NWS Omaha/Valley, NE

Home | Current Version | Previous Version | Text Only | Print | Product List | Glossary On
Versions: 1 2 3 4 5 6 7 8 9 10 11 12 13 14 15 16 17 18 19 20 21 22 23 24 25 26 27 28 29 30 31 32 33 34 35 36 37 38 39 40 41 42
000
FTUS43 KOAX 221720
TAFOMA
TAF
KOMA 221720Z 2218/2318 36025G35KT 4SM -SN BR OVC008
      TEMPO 2218/2220 1 1/2SM -SN BR OVC004
     FM222000 35023G35KT 3SM -SN BR OVC007
      TEMPO 2220/2223 1SM -SN BLSN OVC004
     FM222300 34024G35KT 1 1/2SM -SN BLSN OVC010
     FM230400 33020G28KT 3SM BLSN OVC015
     FM230800 33017KT P6SM BKN015=

USA.gov is the U.S. government's official web portal to all federal, state and local government web resources and services.